createdAt,value
2016-05-16T00:00:19.209Z,0
2016-05-16T00:01:19.243Z,0
2016-05-16T00:02:19.137Z,0
2016-05-16T00:03:19.326Z,0
2016-05-16T00:04:19.361Z,0
2016-05-16T00:05:19.128Z,0
2016-05-16T00:06:19.429Z,0
2016-05-16T00:07:19.165Z,0
2016-05-16T00:08:19.512Z,0
2016-05-16T00:09:19.389Z,0
2016-05-16T00:10:19.580Z,0
2016-05-16T00:11:19.613Z,0
2016-05-16T00:12:19.491Z,0
2016-05-16T00:13:19.698Z,0
2016-05-16T00:14:19.716Z,0
2016-05-16T00:15:19.609Z,0
2016-05-16T00:16:19.799Z,0
2016-05-16T00:17:19.833Z,0
2016-05-16T00:18:19.726Z,0
2016-05-16T00:19:19.760Z,0
2016-05-16T00:20:20.122Z,0
2016-05-16T00:21:19.985Z,0
2016-05-16T00:22:20.034Z,0
2016-05-16T00:23:19.896Z,0
2016-05-16T00:24:20.086Z,0
2016-05-16T00:25:20.136Z,0
2016-05-16T00:26:20.013Z,0
2016-05-16T00:27:20.204Z,0
2016-05-16T00:28:20.238Z,0
2016-05-16T00:29:20.271Z,0
2016-05-16T00:30:20.321Z,0
2016-05-16T00:31:20.354Z,0
2016-05-16T00:32:20.390Z,0
2016-05-16T00:33:20.267Z,0
2016-05-16T00:34:20.457Z,0
2016-05-16T00:35:20.725Z,0
2016-05-16T00:36:20.525Z,0
2016-05-16T00:37:20.575Z,0
2016-05-16T00:38:20.608Z,0
2016-05-16T00:39:20.642Z,0
2016-05-16T00:40:20.676Z,0
2016-05-16T00:41:20.711Z,0
2016-05-16T00:42:20.447Z,0
2016-05-16T00:43:20.637Z,0
2016-05-16T00:44:20.514Z,0
2016-05-16T00:45:20.549Z,0
2016-05-16T00:46:20.895Z,0
2016-05-16T00:47:20.930Z,0
2016-05-16T00:48:20.963Z,0
2016-05-16T00:49:20.997Z,0
2016-05-16T00:50:20.891Z,0
2016-05-16T00:51:21.080Z,0
2016-05-16T00:52:21.115Z,0
2016-05-16T00:53:21.149Z,0
2016-05-16T00:54:21.183Z,0
2016-05-16T00:55:21.232Z,0
2016-05-16T00:56:21.094Z,0
2016-05-16T00:57:21.144Z,0
2016-05-16T00:58:21.335Z,0
2016-05-16T00:59:21.211Z,0
2016-05-16T01:00:21.245Z,0
2016-05-16T01:01:21.435Z,0
2016-05-16T01:02:21.470Z,0
2016-05-16T01:03:21.363Z,0
2016-05-16T01:04:21.397Z,0
2016-05-16T01:05:21.431Z,0
2016-05-16T01:06:21.636Z,0
2016-05-16T01:07:21.671Z,0
2016-05-16T01:08:21.689Z,0
2016-05-16T01:09:21.723Z,0
2016-05-16T01:10:21.773Z,0
2016-05-16T01:11:21.806Z,0
2016-05-16T01:12:21.684Z,0
2016-05-16T01:13:21.875Z,0
2016-05-16T01:14:21.909Z,0
2016-05-16T01:15:21.802Z,0
2016-05-16T01:16:21.991Z,0
2016-05-16T01:17:22.025Z,0
2016-05-16T01:18:22.060Z,0
2016-05-16T01:19:22.094Z,0
2016-05-16T01:20:22.128Z,0
2016-05-16T01:21:22.177Z,0
2016-05-16T01:22:22.210Z,0
2016-05-16T01:23:22.245Z,0
2016-05-16T01:24:22.280Z,0
2016-05-16T01:25:22.313Z,0
2016-05-16T01:26:22.362Z,0
2016-05-16T01:27:22.397Z,0
2016-05-16T01:28:22.429Z,0
2016-05-16T01:29:22.308Z,0
2016-05-16T01:30:22.498Z,0
2016-05-16T01:31:22.532Z,0
2016-05-16T01:32:22.566Z,0
2016-05-16T01:33:22.616Z,0
2016-05-16T01:34:22.478Z,0
2016-05-16T01:35:22.542Z,0
2016-05-16T01:36:22.717Z,0
2016-05-16T01:37:22.752Z,0
2016-05-16T01:38:22.785Z,0
2016-05-16T01:39:22.662Z,0
2016-05-16T01:40:22.870Z,0
2016-05-16T01:41:22.747Z,0
2016-05-16T01:42:22.936Z,0
2016-05-16T01:43:22.971Z,0
2016-05-16T01:44:23.005Z,0
2016-05-16T01:45:23.053Z,0
2016-05-16T01:46:22.917Z,0
2016-05-16T01:47:23.106Z,0
2016-05-16T01:48:23.171Z,0
2016-05-16T01:49:23.190Z,0
2016-05-16T01:50:23.067Z,0
2016-05-16T01:51:23.304Z,0
2016-05-16T01:52:23.379Z,0
2016-05-16T01:53:23.437Z,0
2016-05-16T01:54:23.370Z,0
2016-05-16T01:55:23.602Z,0
2016-05-16T01:56:23.656Z,0
2016-05-16T01:57:23.704Z,0
2016-05-16T01:58:23.753Z,0
2016-05-16T01:59:23.802Z,0
2016-05-16T02:00:23.881Z,0
2016-05-16T02:01:23.766Z,0
2016-05-16T02:02:23.947Z,0
2016-05-16T02:03:24.002Z,0
2016-05-16T02:04:24.025Z,0
2016-05-16T02:05:24.112Z,0
2016-05-16T02:06:24.132Z,0
2016-05-16T02:07:24.153Z,0
2016-05-16T02:08:24.032Z,0
2016-05-16T02:09:24.224Z,0
2016-05-16T02:10:24.120Z,0
2016-05-16T02:11:24.311Z,0
2016-05-16T02:12:24.346Z,0
2016-05-16T02:13:24.380Z,0
2016-05-16T02:14:24.415Z,0
2016-05-16T02:15:24.449Z,0
2016-05-16T02:16:24.499Z,0
2016-05-16T02:17:24.517Z,0
2016-05-16T02:18:24.552Z,0
2016-05-16T02:19:24.601Z,0
2016-05-16T02:20:24.525Z,0
2016-05-16T02:21:24.670Z,0
2016-05-16T02:22:24.703Z,0
2016-05-16T02:23:24.752Z,0
2016-05-16T02:24:24.631Z,0
2016-05-16T02:25:24.664Z,0
2016-05-16T02:26:24.854Z,0
2016-05-16T02:27:24.888Z,0
2016-05-16T02:28:24.922Z,0
2016-05-16T02:29:24.956Z,0
2016-05-16T02:30:24.990Z,0
2016-05-16T02:31:25.039Z,0
2016-05-16T02:32:25.074Z,0
2016-05-16T02:33:25.107Z,0
2016-05-16T02:34:24.986Z,0
2016-05-16T02:35:25.191Z,0
2016-05-16T02:36:25.225Z,0
2016-05-16T02:37:25.243Z,0
2016-05-16T02:38:25.293Z,0
2016-05-16T02:39:25.171Z,0
2016-05-16T02:40:25.361Z,0
2016-05-16T02:41:25.238Z,0
2016-05-16T02:42:25.443Z,0
2016-05-16T02:43:25.478Z,0
2016-05-16T02:44:25.512Z,0
2016-05-16T02:45:25.390Z,0
2016-05-16T02:46:25.579Z,4
2016-05-16T02:47:25.615Z,4
2016-05-16T02:48:25.648Z,4
2016-05-16T02:49:25.682Z,4
2016-05-16T02:50:25.731Z,0
2016-05-16T02:51:25.609Z,4
2016-05-16T02:52:25.642Z,4
2016-05-16T02:53:25.834Z,4
2016-05-16T02:54:25.883Z,4
2016-05-16T02:55:25.745Z,4
2016-05-16T02:56:25.950Z,4
2016-05-16T02:57:25.828Z,4
2016-05-16T02:58:26.019Z,8
2016-05-16T02:59:26.053Z,4
2016-05-16T03:00:25.945Z,4
2016-05-16T03:01:26.120Z,4
2016-05-16T03:02:26.155Z,4
2016-05-16T03:03:26.203Z,4
2016-05-16T03:04:26.222Z,4
2016-05-16T03:05:26.271Z,4
2016-05-16T03:06:26.149Z,8
2016-05-16T03:07:26.339Z,8
2016-05-16T03:08:26.374Z,8
2016-05-16T03:09:26.423Z,8
2016-05-16T03:10:26.457Z,8
2016-05-16T03:11:26.350Z,12
2016-05-16T03:12:26.525Z,12
2016-05-16T03:13:26.559Z,12
2016-05-16T03:14:26.593Z,16
2016-05-16T03:15:26.657Z,16
2016-05-16T03:16:26.676Z,20
2016-05-16T03:17:26.710Z,20
2016-05-16T03:18:26.729Z,24
2016-05-16T03:19:26.793Z,20
2016-05-16T03:20:27.187Z,24
2016-05-16T03:21:26.846Z,24
2016-05-16T03:22:26.739Z,24
2016-05-16T03:23:26.773Z,32
2016-05-16T03:24:26.964Z,32
2016-05-16T03:25:26.842Z,36
2016-05-16T03:26:27.031Z,40
2016-05-16T03:27:27.065Z,44
2016-05-16T03:28:27.099Z,32
2016-05-16T03:29:27.133Z,32
2016-05-16T03:30:27.183Z,40
2016-05-16T03:31:27.217Z,48
2016-05-16T03:32:27.250Z,52
2016-05-16T03:33:27.284Z,52
2016-05-16T03:34:27.319Z,68
2016-05-16T03:35:27.821Z,64
2016-05-16T03:36:27.402Z,60
2016-05-16T03:37:27.436Z,52
2016-05-16T03:38:27.469Z,52
2016-05-16T03:39:27.504Z,48
2016-05-16T03:40:27.382Z,48
2016-05-16T03:41:27.415Z,56
2016-05-16T03:42:27.605Z,64
2016-05-16T03:43:27.655Z,56
2016-05-16T03:44:27.689Z,60
2016-05-16T03:45:27.723Z,60
2016-05-16T03:46:27.773Z,68
2016-05-16T03:47:27.791Z,52
2016-05-16T03:48:27.668Z,56
2016-05-16T03:49:27.859Z,68
2016-05-16T03:50:28.455Z,80
2016-05-16T03:51:27.942Z,84
2016-05-16T03:52:27.976Z,124
2016-05-16T03:53:28.010Z,104
2016-05-16T03:54:28.044Z,104
2016-05-16T03:55:28.078Z,92
2016-05-16T03:56:28.112Z,112
2016-05-16T03:57:28.162Z,132
2016-05-16T03:58:28.180Z,108
2016-05-16T03:59:28.229Z,128
2016-05-16T04:00:28.263Z,128
2016-05-16T04:01:28.156Z,164
2016-05-16T04:02:28.331Z,140
2016-05-16T04:03:28.365Z,176
2016-05-16T04:04:28.258Z,152
2016-05-16T04:05:28.902Z,160
2016-05-16T04:06:28.483Z,196
2016-05-16T04:07:28.205Z,204
2016-05-16T04:08:28.550Z,232
2016-05-16T04:09:28.600Z,232
2016-05-16T04:10:28.305Z,244
2016-05-16T04:11:28.652Z,228
2016-05-16T04:12:28.702Z,216
2016-05-16T04:13:28.751Z,192
2016-05-16T04:14:28.769Z,228
2016-05-16T04:15:28.647Z,216
2016-05-16T04:16:28.838Z,240
2016-05-16T04:17:28.887Z,284
2016-05-16T04:18:28.905Z,308
2016-05-16T04:19:28.954Z,352
2016-05-16T04:20:29.145Z,352
2016-05-16T04:21:29.023Z,344
2016-05-16T04:22:29.057Z,304
2016-05-16T04:23:29.090Z,268
2016-05-16T04:24:29.140Z,380
2016-05-16T04:25:29.174Z,368
2016-05-16T04:26:29.067Z,368
2016-05-16T04:27:29.242Z,400
2016-05-16T04:28:29.120Z,564
2016-05-16T04:29:29.310Z,532
2016-05-16T04:30:29.359Z,496
2016-05-16T04:31:29.237Z,492
2016-05-16T04:32:29.411Z,432
2016-05-16T04:33:29.461Z,416
2016-05-16T04:34:29.339Z,408
2016-05-16T04:35:30.420Z,320
2016-05-16T04:36:29.578Z,480
2016-05-16T04:37:29.613Z,464
2016-05-16T04:38:29.631Z,432
2016-05-16T04:39:29.525Z,416
2016-05-16T04:40:29.933Z,340
2016-05-16T04:41:29.749Z,620
2016-05-16T04:42:29.627Z,496
2016-05-16T04:43:29.816Z,460
2016-05-16T04:44:29.866Z,416
2016-05-16T04:45:29.899Z,460
2016-05-16T04:46:29.934Z,520
2016-05-16T04:47:29.968Z,496
2016-05-16T04:48:30.002Z,464
2016-05-16T04:49:30.051Z,592
2016-05-16T04:50:30.179Z,600
2016-05-16T04:51:30.103Z,552
2016-05-16T04:52:30.138Z,544
2016-05-16T04:53:30.171Z,620
2016-05-16T04:54:30.065Z,540
2016-05-16T04:55:30.254Z,540
2016-05-16T04:56:30.289Z,572
2016-05-16T04:57:30.167Z,652
2016-05-16T04:58:30.372Z,572
2016-05-16T04:59:30.406Z,628
2016-05-16T05:00:30.284Z,668
2016-05-16T05:01:30.475Z,600
2016-05-16T05:02:30.523Z,564
2016-05-16T05:03:30.542Z,536
2016-05-16T05:04:30.435Z,484
2016-05-16T05:05:30.328Z,500
2016-05-16T05:06:30.659Z,592
2016-05-16T05:07:30.694Z,600
2016-05-16T05:08:30.743Z,608
2016-05-16T05:09:30.761Z,684
2016-05-16T05:10:30.811Z,668
2016-05-16T05:11:30.672Z,592
2016-05-16T05:12:30.863Z,604
2016-05-16T05:13:30.913Z,696
2016-05-16T05:14:30.931Z,744
2016-05-16T05:15:30.981Z,700
2016-05-16T05:16:31.030Z,704
2016-05-16T05:17:31.048Z,728
2016-05-16T05:18:31.082Z,740
2016-05-16T05:19:31.132Z,732
2016-05-16T05:20:31.166Z,736
2016-05-16T05:21:31.199Z,852
2016-05-16T05:22:31.234Z,884
2016-05-16T05:23:31.267Z,892
2016-05-16T05:24:31.302Z,844
2016-05-16T05:25:31.335Z,884
2016-05-16T05:26:31.370Z,940
2016-05-16T05:27:31.403Z,880
2016-05-16T05:28:31.453Z,860
2016-05-16T05:29:31.487Z,836
2016-05-16T05:30:31.520Z,928
2016-05-16T05:31:31.570Z,1080
2016-05-16T05:32:31.604Z,1028
2016-05-16T05:33:31.639Z,960
2016-05-16T05:34:31.673Z,1052
2016-05-16T05:35:31.706Z,1016
2016-05-16T05:36:31.599Z,1116
2016-05-16T05:37:31.790Z,1096
2016-05-16T05:38:31.808Z,848
2016-05-16T05:39:31.858Z,840
2016-05-16T05:40:31.891Z,1124
2016-05-16T05:41:31.613Z,1248
2016-05-16T05:42:31.974Z,1228
2016-05-16T05:43:31.681Z,1192
2016-05-16T05:44:32.027Z,1100
2016-05-16T05:45:32.061Z,1056
2016-05-16T05:46:32.110Z,996
2016-05-16T05:47:32.130Z,1188
2016-05-16T05:48:32.178Z,1184
2016-05-16T05:49:32.213Z,1088
2016-05-16T05:50:32.277Z,964
2016-05-16T05:51:32.280Z,976
2016-05-16T05:52:32.329Z,992
2016-05-16T05:53:32.349Z,984
2016-05-16T05:54:32.429Z,1000
2016-05-16T05:55:32.432Z,1008
2016-05-16T05:56:32.466Z,900
2016-05-16T05:57:32.500Z,692
2016-05-16T05:58:32.549Z,792
2016-05-16T05:59:32.583Z,908
2016-05-16T06:00:32.601Z,868
2016-05-16T06:01:32.651Z,860
2016-05-16T06:02:32.685Z,900
2016-05-16T06:03:32.719Z,924
2016-05-16T06:04:32.753Z,852
2016-05-16T06:05:32.803Z,688
2016-05-16T06:06:32.680Z,764
2016-05-16T06:07:32.870Z,924
2016-05-16T06:08:32.905Z,964
2016-05-16T06:09:32.782Z,1068
2016-05-16T06:10:32.816Z,1028
2016-05-16T06:11:32.865Z,1020
2016-05-16T06:12:33.041Z,1184
2016-05-16T06:13:33.089Z,1144
2016-05-16T06:14:33.124Z,1288
2016-05-16T06:15:33.157Z,1540
2016-05-16T06:16:33.207Z,1596
2016-05-16T06:17:33.224Z,1276
2016-05-16T06:18:33.274Z,1668
2016-05-16T06:19:33.310Z,1524
2016-05-16T06:20:33.343Z,1460
2016-05-16T06:21:33.377Z,1320
2016-05-16T06:22:33.254Z,1664
2016-05-16T06:23:33.445Z,1572
2016-05-16T06:24:33.479Z,1444
2016-05-16T06:25:33.528Z,1376
2016-05-16T06:26:33.406Z,1468
2016-05-16T06:27:33.440Z,1464
2016-05-16T06:28:33.629Z,1356
2016-05-16T06:29:33.679Z,1308
2016-05-16T06:30:33.714Z,1320
2016-05-16T06:31:33.747Z,1180
2016-05-16T06:32:33.782Z,1268
2016-05-16T06:33:33.814Z,1228
2016-05-16T06:34:33.850Z,1360
2016-05-16T06:35:34.056Z,1296
2016-05-16T06:36:33.620Z,1144
2016-05-16T06:37:33.951Z,1204
2016-05-16T06:38:33.985Z,1140
2016-05-16T06:39:34.034Z,1020
2016-05-16T06:40:34.069Z,1120
2016-05-16T06:41:34.103Z,1028
2016-05-16T06:42:34.152Z,1176
2016-05-16T06:43:34.170Z,948
2016-05-16T06:44:34.063Z,1020
2016-05-16T06:45:34.254Z,1052
2016-05-16T06:46:34.288Z,1060
2016-05-16T06:47:34.322Z,1132
2016-05-16T06:48:34.356Z,1184
2016-05-16T06:49:34.405Z,1236
2016-05-16T06:50:34.127Z,1148
2016-05-16T06:51:34.474Z,1124
2016-05-16T06:52:34.507Z,1360
2016-05-16T06:53:34.557Z,1192
2016-05-16T06:54:34.574Z,1224
2016-05-16T06:55:34.609Z,1148
2016-05-16T06:56:34.659Z,1216
2016-05-16T06:57:34.677Z,1352
2016-05-16T06:58:34.726Z,1104
2016-05-16T06:59:34.901Z,1632
2016-05-16T07:00:34.794Z,1276
2016-05-16T07:01:35.218Z,1820
2016-05-16T07:02:34.940Z,1696
2016-05-16T07:03:34.895Z,1160
2016-05-16T07:04:34.946Z,1632
2016-05-16T07:05:35.089Z,1800
2016-05-16T07:06:34.856Z,1176
2016-05-16T07:07:35.048Z,1052
2016-05-16T07:08:35.097Z,1184
2016-05-16T07:09:35.147Z,1188
2016-05-16T07:10:35.164Z,1712
2016-05-16T07:11:35.214Z,1940
2016-05-16T07:12:35.780Z,1440
2016-05-16T07:13:35.111Z,856
2016-05-16T07:14:35.300Z,1580
2016-05-16T07:15:35.350Z,1752
2016-05-16T07:16:35.228Z,1904
2016-05-16T07:17:36.480Z,2020
2016-05-16T07:18:35.452Z,1088
2016-05-16T07:19:35.485Z,1476
2016-05-16T07:20:35.394Z,1672
2016-05-16T07:21:35.397Z,2312
2016-05-16T07:22:35.604Z,1792
2016-05-16T07:23:35.638Z,2280
2016-05-16T07:24:35.671Z,2148
2016-05-16T07:25:35.549Z,1800
2016-05-16T07:26:35.739Z,1032
2016-05-16T07:27:35.788Z,1240
2016-05-16T07:28:35.823Z,1960
2016-05-16T07:29:35.856Z,1828
2016-05-16T07:30:35.891Z,1176
2016-05-16T07:31:35.784Z,2196
2016-05-16T07:32:35.973Z,1104
2016-05-16T07:33:35.851Z,1316
2016-05-16T07:34:36.042Z,1968
2016-05-16T07:35:36.248Z,1784
2016-05-16T07:36:36.109Z,2316
2016-05-16T07:37:36.144Z,2324
2016-05-16T07:38:36.178Z,1884
2016-05-16T07:39:36.228Z,1992
2016-05-16T07:40:36.262Z,2092
2016-05-16T07:41:36.294Z,1636
2016-05-16T07:42:36.329Z,1580
2016-05-16T07:43:36.378Z,1864
2016-05-16T07:44:36.413Z,1976
2016-05-16T07:45:36.430Z,2436
2016-05-16T07:46:36.324Z,2140
2016-05-16T07:47:36.357Z,2928
2016-05-16T07:48:36.548Z,1508
2016-05-16T07:49:36.583Z,2276
2016-05-16T07:50:36.600Z,1052
2016-05-16T07:51:36.494Z,796
2016-05-16T07:52:36.684Z,1700
2016-05-16T07:53:36.577Z,2032
2016-05-16T07:54:36.752Z,1360
2016-05-16T07:55:36.801Z,2164
2016-05-16T07:56:36.835Z,1680
2016-05-16T07:57:36.868Z,1496
2016-05-16T07:58:36.763Z,1556
2016-05-16T07:59:36.938Z,1344
2016-05-16T08:00:36.971Z,980
2016-05-16T08:01:37.021Z,1132
2016-05-16T08:02:37.054Z,1416
2016-05-16T08:03:36.776Z,1740
2016-05-16T08:04:37.122Z,1996
2016-05-16T08:05:37.156Z,1104
2016-05-16T08:06:37.190Z,1000
2016-05-16T08:07:37.225Z,2168
2016-05-16T08:08:37.102Z,1860
2016-05-16T08:09:37.151Z,932
2016-05-16T08:10:37.186Z,984
2016-05-16T08:11:37.219Z,1160
2016-05-16T08:12:37.409Z,2328
2016-05-16T08:13:37.286Z,1188
2016-05-16T08:14:37.478Z,1768
2016-05-16T08:15:37.528Z,1228
2016-05-16T08:16:37.561Z,1240
2016-05-16T08:17:37.595Z,2040
2016-05-16T08:18:37.629Z,2000
2016-05-16T08:19:38.616Z,2984
2016-05-16T08:20:37.791Z,1576
2016-05-16T08:21:40.980Z,1096
2016-05-16T08:22:50.999Z,1380
2016-05-16T08:23:38.314Z,1940
2016-05-16T08:24:37.614Z,1132
2016-05-16T08:25:37.882Z,1832
2016-05-16T08:26:37.916Z,2556
2016-05-16T08:27:38.246Z,2628
2016-05-16T08:28:37.999Z,1984
2016-05-16T08:29:38.158Z,1904
2016-05-16T08:30:38.051Z,2252
2016-05-16T08:31:38.102Z,1884
2016-05-16T08:32:37.979Z,1328
2016-05-16T08:33:38.013Z,948
2016-05-16T08:34:38.234Z,960
2016-05-16T08:35:38.253Z,1052
2016-05-16T08:36:38.271Z,1208
2016-05-16T08:37:38.320Z,2748
2016-05-16T08:38:38.901Z,2032
2016-05-16T08:39:38.389Z,1820
2016-05-16T08:40:38.438Z,1820
2016-05-16T08:41:38.472Z,1380
2016-05-16T08:42:38.506Z,2100
2016-05-16T08:43:38.539Z,1964
2016-05-16T08:44:38.418Z,1440
2016-05-16T08:45:38.607Z,784
2016-05-16T08:46:38.641Z,844
2016-05-16T08:47:38.676Z,1144
2016-05-16T08:48:38.725Z,984
2016-05-16T08:49:38.744Z,992
2016-05-16T08:50:38.777Z,1264
2016-05-16T08:51:38.827Z,944
2016-05-16T08:52:38.861Z,652
2016-05-16T08:53:38.894Z,804
2016-05-16T08:54:38.944Z,996
2016-05-16T08:55:38.979Z,1220
2016-05-16T08:56:39.013Z,1372
2016-05-16T08:57:39.046Z,2132
2016-05-16T08:58:39.096Z,2332
2016-05-16T08:59:39.129Z,2496
2016-05-16T09:00:39.148Z,2364
2016-05-16T09:01:39.197Z,2584
2016-05-16T09:02:39.075Z,2576
2016-05-16T09:03:39.282Z,1288
2016-05-16T09:04:39.299Z,1148
2016-05-16T09:05:39.209Z,1156
2016-05-16T09:06:39.383Z,940
2016-05-16T09:07:39.245Z,1060
2016-05-16T09:08:39.451Z,1064
2016-05-16T09:09:39.484Z,1396
2016-05-16T09:10:39.519Z,2600
2016-05-16T09:11:39.553Z,2444
2016-05-16T09:12:39.603Z,1496
2016-05-16T09:13:39.636Z,1304
2016-05-16T09:14:39.670Z,1004
2016-05-16T09:15:39.563Z,1096
2016-05-16T09:16:39.597Z,1512
2016-05-16T09:17:39.787Z,2256
2016-05-16T09:18:39.821Z,1876
2016-05-16T09:19:39.856Z,1808
2016-05-16T09:20:39.905Z,1460
2016-05-16T09:21:39.939Z,1488
2016-05-16T09:22:39.816Z,1512
2016-05-16T09:23:39.991Z,916
2016-05-16T09:24:40.041Z,1004
2016-05-16T09:25:40.075Z,1200
2016-05-16T09:26:40.108Z,1944
2016-05-16T09:27:40.158Z,1792
2016-05-16T09:28:40.193Z,1200
2016-05-16T09:29:40.210Z,1240
2016-05-16T09:30:40.260Z,1088
2016-05-16T09:31:40.137Z,1104
2016-05-16T09:32:40.343Z,1300
2016-05-16T09:33:40.362Z,2764
2016-05-16T09:34:40.396Z,2784
2016-05-16T09:35:40.540Z,2092
2016-05-16T09:36:40.479Z,1644
2016-05-16T09:37:40.513Z,1824
2016-05-16T09:38:40.547Z,2356
2016-05-16T09:39:40.597Z,1664
2016-05-16T09:40:40.631Z,1020
2016-05-16T09:41:40.664Z,1064
2016-05-16T09:42:40.558Z,1104
2016-05-16T09:43:40.733Z,1176
2016-05-16T09:44:40.767Z,1284
2016-05-16T09:45:40.659Z,1300
2016-05-16T09:46:40.850Z,1200
2016-05-16T09:47:40.883Z,1756
2016-05-16T09:48:40.917Z,2560
2016-05-16T09:49:40.952Z,2688
2016-05-16T09:50:41.313Z,2708
2016-05-16T09:51:40.880Z,2824
2016-05-16T09:52:41.069Z,2184
2016-05-16T09:53:41.103Z,1576
2016-05-16T09:54:41.168Z,2316
2016-05-16T09:55:41.030Z,3356
2016-05-16T09:56:41.064Z,3340
2016-05-16T09:57:41.271Z,2508
2016-05-16T09:58:41.289Z,1372
2016-05-16T09:59:41.322Z,1044
2016-05-16T10:00:41.372Z,740
2016-05-16T10:01:41.406Z,792
2016-05-16T10:02:41.440Z,808
2016-05-16T10:03:41.473Z,932
2016-05-16T10:04:41.507Z,928
2016-05-16T10:05:42.088Z,852
2016-05-16T10:06:41.451Z,948
2016-05-16T10:07:41.626Z,1584
2016-05-16T10:08:41.503Z,3432
2016-05-16T10:09:41.693Z,3180
2016-05-16T10:10:41.758Z,1948
2016-05-16T10:11:41.776Z,1228
2016-05-16T10:12:41.811Z,1028
2016-05-16T10:13:42.657Z,864
2016-05-16T10:14:59.363Z,832
2016-05-16T10:15:42.240Z,1256
2016-05-16T10:16:41.947Z,1416
2016-05-16T10:17:48.324Z,1728
2016-05-16T10:18:42.030Z,1584
2016-05-16T10:19:42.063Z,1200
2016-05-16T10:20:41.958Z,1100
2016-05-16T10:21:42.131Z,1188
2016-05-16T10:22:42.009Z,1232
2016-05-16T10:23:42.216Z,1240
2016-05-16T10:24:42.249Z,1620
2016-05-16T10:25:42.299Z,1632
2016-05-16T10:26:42.316Z,1732
2016-05-16T10:27:42.351Z,2148
2016-05-16T10:28:42.400Z,1908
2016-05-16T10:29:42.435Z,1832
2016-05-16T10:30:42.313Z,1728
2016-05-16T10:31:42.502Z,2252
2016-05-16T10:32:42.536Z,2356
2016-05-16T10:33:42.570Z,2696
2016-05-16T10:34:42.620Z,2372
2016-05-16T10:35:42.653Z,2372
2016-05-16T10:36:42.688Z,2068
2016-05-16T10:37:42.737Z,2180
2016-05-16T10:38:42.770Z,1724
2016-05-16T10:39:42.790Z,2128
2016-05-16T10:40:42.840Z,3288
2016-05-16T10:41:42.873Z,4032
2016-05-16T10:42:42.907Z,3584
2016-05-16T10:43:42.956Z,3236
2016-05-16T10:44:42.990Z,3164
2016-05-16T10:45:43.024Z,2808
2016-05-16T10:46:43.058Z,2940
2016-05-16T10:47:43.092Z,3048
2016-05-16T10:48:43.142Z,3136
2016-05-16T10:49:43.175Z,3520
2016-05-16T10:50:43.069Z,3132
2016-05-16T10:51:43.243Z,2448
2016-05-16T10:52:43.294Z,3292
2016-05-16T10:53:43.171Z,3476
2016-05-16T10:54:43.361Z,3552
2016-05-16T10:55:43.239Z,3596
2016-05-16T10:56:43.429Z,3736
2016-05-16T10:57:43.503Z,4016
2016-05-16T10:58:43.600Z,4088
2016-05-16T10:59:43.664Z,3780
2016-05-16T11:00:43.761Z,3392
2016-05-16T11:01:43.841Z,3180
2016-05-16T11:02:43.897Z,3344
2016-05-16T11:03:43.807Z,2472
2016-05-16T11:04:44.029Z,2140
2016-05-16T11:05:44.096Z,2280
2016-05-16T11:06:44.116Z,2340
2016-05-16T11:07:44.157Z,2500
2016-05-16T11:08:44.197Z,2724
2016-05-16T11:09:44.252Z,2928
2016-05-16T11:10:44.292Z,2916
2016-05-16T11:11:44.332Z,2804
2016-05-16T11:12:44.384Z,2780
2016-05-16T11:13:44.419Z,3024
2016-05-16T11:14:44.457Z,3368
2016-05-16T11:15:44.492Z,3280
2016-05-16T11:16:44.545Z,3584
2016-05-16T11:17:44.579Z,3112
2016-05-16T11:18:44.613Z,3568
2016-05-16T11:19:44.649Z,3808
2016-05-16T11:20:45.058Z,3532
2016-05-16T11:21:44.562Z,3236
2016-05-16T11:22:44.769Z,3008
2016-05-16T11:23:44.818Z,3376
2016-05-16T11:24:44.853Z,3744
2016-05-16T11:25:44.871Z,4272
2016-05-16T11:26:44.905Z,3556
2016-05-16T11:27:44.955Z,3516
2016-05-16T11:28:44.989Z,3244
2016-05-16T11:29:45.022Z,2856
2016-05-16T11:30:45.057Z,2472
2016-05-16T11:31:45.106Z,1744
2016-05-16T11:32:44.984Z,1600
2016-05-16T11:33:45.175Z,2164
2016-05-16T11:34:45.224Z,2628
2016-05-16T11:35:45.102Z,2932
2016-05-16T11:36:45.291Z,3072
2016-05-16T11:37:45.325Z,2828
2016-05-16T11:38:45.203Z,2504
2016-05-16T11:39:45.410Z,2872
2016-05-16T11:40:45.271Z,2536
2016-05-16T11:41:45.477Z,2544
2016-05-16T11:42:45.510Z,3228
2016-05-16T11:43:45.545Z,3984
2016-05-16T11:44:45.579Z,4212
2016-05-16T11:45:45.628Z,3808
2016-05-16T11:46:45.663Z,3748
2016-05-16T11:47:45.712Z,3552
2016-05-16T11:48:45.730Z,3648
2016-05-16T11:49:45.765Z,3468
2016-05-16T11:50:45.907Z,2844
2016-05-16T11:51:45.707Z,2608
2016-05-16T11:52:45.881Z,3784
2016-05-16T11:53:45.915Z,2272
2016-05-16T11:54:45.965Z,1324
2016-05-16T11:55:45.843Z,1104
2016-05-16T11:56:46.033Z,1372
2016-05-16T11:57:46.067Z,1540
2016-05-16T11:58:46.100Z,1772
2016-05-16T11:59:46.135Z,2064
2016-05-16T12:00:46.184Z,2016
2016-05-16T12:01:46.219Z,1952
2016-05-16T12:02:46.253Z,2260
2016-05-16T12:03:46.302Z,3256
2016-05-16T12:04:46.320Z,3412
2016-05-16T12:05:46.244Z,3608
2016-05-16T12:06:46.403Z,3752
2016-05-16T12:07:46.438Z,3916
2016-05-16T12:08:46.488Z,4004
2016-05-16T12:09:46.552Z,4260
2016-05-16T12:10:46.555Z,4380
2016-05-16T12:11:46.605Z,3696
2016-05-16T12:12:46.623Z,3680
2016-05-16T12:13:46.672Z,3732
2016-05-16T12:14:46.707Z,3768
2016-05-16T12:15:46.741Z,3876
2016-05-16T12:16:46.774Z,4092
2016-05-16T12:17:46.808Z,3940
2016-05-16T12:18:46.857Z,3848
2016-05-16T12:19:46.892Z,3768
2016-05-16T12:20:46.628Z,3756
2016-05-16T12:21:46.959Z,3932
2016-05-16T12:22:46.994Z,3808
2016-05-16T12:23:47.059Z,3744
2016-05-16T12:24:47.093Z,3628
2016-05-16T12:25:47.126Z,3540
2016-05-16T12:26:47.145Z,3028
2016-05-16T12:27:47.210Z,3024
2016-05-16T12:28:47.228Z,3144
2016-05-16T12:29:47.278Z,3580
2016-05-16T12:30:47.312Z,3540
2016-05-16T12:31:47.346Z,4372
2016-05-16T12:32:47.380Z,3956
2016-05-16T12:33:47.289Z,3648
2016-05-16T12:34:47.307Z,3668
2016-05-16T12:35:47.700Z,3624
2016-05-16T12:36:47.530Z,2580
2016-05-16T12:37:47.581Z,3264
2016-05-16T12:38:47.615Z,1392
2016-05-16T12:39:47.649Z,1276
2016-05-16T12:40:47.683Z,1536
2016-05-16T12:41:47.716Z,1840
2016-05-16T12:42:47.454Z,1840
2016-05-16T12:43:47.799Z,1820
2016-05-16T12:44:47.834Z,2032
2016-05-16T12:45:47.712Z,2112
2016-05-16T12:46:47.918Z,2156
2016-05-16T12:47:47.951Z,2376
2016-05-16T12:48:47.985Z,3156
2016-05-16T12:49:47.863Z,3388
2016-05-16T12:50:48.068Z,3708
2016-05-16T12:51:48.104Z,3476
2016-05-16T12:52:48.151Z,3484
2016-05-16T12:53:48.171Z,3588
2016-05-16T12:54:48.221Z,3888
2016-05-16T12:55:48.254Z,3764
2016-05-16T12:56:48.287Z,4196
2016-05-16T12:57:48.337Z,6464
2016-05-16T12:58:48.372Z,5368
2016-05-16T12:59:48.406Z,6236
2016-05-16T13:00:48.440Z,6880
2016-05-16T13:01:48.489Z,6968
2016-05-16T13:02:49.476Z,7908
2016-05-16T13:03:49.353Z,7664
2016-05-16T13:04:49.403Z,6872
2016-05-16T13:05:49.609Z,3908
2016-05-16T13:06:49.628Z,2448
2016-05-16T13:07:49.677Z,1348
2016-05-16T13:08:49.539Z,1004
2016-05-16T13:09:49.589Z,1168
2016-05-16T13:10:49.794Z,944
2016-05-16T13:11:49.828Z,804
2016-05-16T13:12:49.862Z,752
2016-05-16T13:13:49.755Z,816
2016-05-16T13:14:49.930Z,1004
2016-05-16T13:15:49.980Z,1128
2016-05-16T13:16:50.014Z,956
2016-05-16T13:17:50.048Z,852
2016-05-16T13:18:50.082Z,824
2016-05-16T13:19:49.959Z,692
2016-05-16T13:20:50.040Z,752
2016-05-16T13:21:50.199Z,800
2016-05-16T13:22:50.233Z,716
2016-05-16T13:23:50.126Z,628
2016-05-16T13:24:50.176Z,580
2016-05-16T13:25:50.351Z,616
2016-05-16T13:26:50.228Z,708
2016-05-16T13:27:50.434Z,736
2016-05-16T13:28:50.467Z,584
2016-05-16T13:29:50.502Z,512
2016-05-16T13:30:50.395Z,436
2016-05-16T13:31:50.570Z,436
2016-05-16T13:32:50.463Z,548
2016-05-16T13:33:50.653Z,708
2016-05-16T13:34:50.531Z,892
2016-05-16T13:35:50.814Z,1072
2016-05-16T13:36:50.770Z,1188
2016-05-16T13:37:50.648Z,1432
2016-05-16T13:38:50.683Z,1716
2016-05-16T13:39:50.888Z,2032
2016-05-16T13:40:50.922Z,2508
2016-05-16T13:41:50.956Z,3264
2016-05-16T13:42:51.006Z,3568
2016-05-16T13:43:51.039Z,3392
2016-05-16T13:44:50.917Z,3520
2016-05-16T13:45:51.108Z,3596
2016-05-16T13:46:51.141Z,3808